sensor_id;sensor_type;location;lat;lon;timestamp;pressure;altitude;pressure_sealevel;temperature;humidity
25526;BME280;13424;48.424;11.258;2022-12-29T00:02:26;95366.28;;;9.02;58.55
25526;BME280;13424;48.424;11.258;2022-12-29T00:04:52;95361.84;;;8.55;60.03
25526;BME280;13424;48.424;11.258;2022-12-29T00:07:18;95358.38;;;8.43;59.47
25526;BME280;13424;48.424;11.258;2022-12-29T00:09:44;95350.00;;;8.75;58.58
25526;BME280;13424;48.424;11.258;2022-12-29T00:12:09;95352.38;;;9.11;58.54
25526;BME280;13424;48.424;11.258;2022-12-29T00:14:35;95351.72;;;8.92;58.33
25526;BME280;13424;48.424;11.258;2022-12-29T00:17:19;95342.72;;;8.82;58.43
25526;BME280;13424;48.424;11.258;2022-12-29T00:19:45;95350.78;;;8.99;58.48
25526;BME280;13424;48.424;11.258;2022-12-29T00:22:30;95354.09;;;9.17;57.71
25526;BME280;13424;48.424;11.258;2022-12-29T00:25:14;95346.94;;;9.06;57.44
25526;BME280;13424;48.424;11.258;2022-12-29T00:27:58;95358.00;;;8.86;58.65
25526;BME280;13424;48.424;11.258;2022-12-29T00:30:42;95353.47;;;8.75;58.31
25526;BME280;13424;48.424;11.258;2022-12-29T00:33:32;95361.31;;;9.34;57.24
25526;BME280;13424;48.424;11.258;2022-12-29T00:36:35;95354.59;;;9.03;58.27
25526;BME280;13424;48.424;11.258;2022-12-29T00:39:14;95353.94;;;8.84;57.83
25526;BME280;13424;48.424;11.258;2022-12-29T00:42:08;95346.69;;;9.08;57.22
25526;BME280;13424;48.424;11.258;2022-12-29T00:44:52;95357.28;;;9.31;56.93
25526;BME280;13424;48.424;11.258;2022-12-29T00:47:18;95353.47;;;9.27;56.11
25526;BME280;13424;48.424;11.258;2022-12-29T00:49:44;95351.25;;;9.36;56.17
25526;BME280;13424;48.424;11.258;2022-12-29T00:52:12;95356.16;;;9.15;56.92
25526;BME280;13424;48.424;11.258;2022-12-29T00:54:39;95349.81;;;9.45;55.63
25526;BME280;13424;48.424;11.258;2022-12-29T00:57:08;95351.25;;;9.36;56.05
25526;BME280;13424;48.424;11.258;2022-12-29T00:59:41;95351.63;;;9.56;54.94
25526;BME280;13424;48.424;11.258;2022-12-29T01:02:08;95355.69;;;9.75;54.79
25526;BME280;13424;48.424;11.258;2022-12-29T01:04:34;95362.66;;;9.48;54.83
25526;BME280;13424;48.424;11.258;2022-12-29T01:07:00;95364.19;;;9.72;54.70
25526;BME280;13424;48.424;11.258;2022-12-29T01:09:26;95362.28;;;9.56;55.20
25526;BME280;13424;48.424;11.258;2022-12-29T01:12:10;95368.63;;;9.55;55.88
25526;BME280;13424;48.424;11.258;2022-12-29T01:14:37;95362.97;;;9.23;55.74
25526;BME280;13424;48.424;11.258;2022-12-29T01:17:03;95373.22;;;9.43;55.92
25526;BME280;13424;48.424;11.258;2022-12-29T01:19:29;95373.09;;;9.38;55.35
25526;BME280;13424;48.424;11.258;2022-12-29T01:21:55;95368.44;;;9.16;56.11
25526;BME280;13424;48.424;11.258;2022-12-29T01:24:21;95367.09;;;9.02;56.38
25526;BME280;13424;48.424;11.258;2022-12-29T01:26:48;95373.41;;;9.25;55.70
25526;BME280;13424;48.424;11.258;2022-12-29T01:29:16;95365.94;;;8.98;55.92
25526;BME280;13424;48.424;11.258;2022-12-29T01:31:44;95363.03;;;9.00;56.10
25526;BME280;13424;48.424;11.258;2022-12-29T01:34:10;95366.06;;;9.32;55.43
25526;BME280;13424;48.424;11.258;2022-12-29T01:36:37;95360.78;;;9.20;55.41
25526;BME280;13424;48.424;11.258;2022-12-29T01:43:12;95354.53;;;8.86;55.83
25526;BME280;13424;48.424;11.258;2022-12-29T01:45:43;95349.44;;;9.25;54.91
25526;BME280;13424;48.424;11.258;2022-12-29T01:48:11;95340.97;;;9.56;54.03
25526;BME280;13424;48.424;11.258;2022-12-29T01:50:45;95329.84;;;9.59;53.70
25526;BME280;13424;48.424;11.258;2022-12-29T01:53:24;95338.28;;;9.85;53.11
25526;BME280;13424;48.424;11.258;2022-12-29T01:55:56;95333.59;;;9.92;52.90
25526;BME280;13424;48.424;11.258;2022-12-29T01:58:27;95336.16;;;9.87;53.73
25526;BME280;13424;48.424;11.258;2022-12-29T02:00:55;95337.47;;;10.01;53.06
25526;BME280;13424;48.424;11.258;2022-12-29T02:03:21;95340.41;;;9.71;53.66
25526;BME280;13424;48.424;11.258;2022-12-29T02:09:17;95339.06;;;10.19;52.26
25526;BME280;13424;48.424;11.258;2022-12-29T02:11:43;95335.75;;;9.95;53.01
25526;BME280;13424;48.424;11.258;2022-12-29T02:14:14;95327.56;;;10.30;52.94
25526;BME280;13424;48.424;11.258;2022-12-29T02:22:51;95335.13;;;10.21;52.92
25526;BME280;13424;48.424;11.258;2022-12-29T02:25:59;95331.03;;;10.30;52.73
25526;BME280;13424;48.424;11.258;2022-12-29T02:29:00;95323.44;;;9.89;53.70
25526;BME280;13424;48.424;11.258;2022-12-29T02:31:47;95319.56;;;9.79;53.44
25526;BME280;13424;48.424;11.258;2022-12-29T02:34:42;95323.28;;;9.95;53.38
25526;BME280;13424;48.424;11.258;2022-12-29T02:43:44;95315.69;;;10.21;52.66
25526;BME280;13424;48.424;11.258;2022-12-29T02:47:09;95313.34;;;10.24;52.62
25526;BME280;13424;48.424;11.258;2022-12-29T02:49:30;95316.34;;;10.28;52.17
25526;BME280;13424;48.424;11.258;2022-12-29T02:52:10;95311.81;;;10.28;51.93
25526;BME280;13424;48.424;11.258;2022-12-29T02:58:46;95307.59;;;10.32;51.26
25526;BME280;13424;48.424;11.258;2022-12-29T03:01:29;95310.44;;;10.43;51.86
25526;BME280;13424;48.424;11.258;2022-12-29T03:06:50;95301.88;;;9.73;52.87
25526;BME280;13424;48.424;11.258;2022-12-29T03:09:50;95304.69;;;10.34;51.94
25526;BME280;13424;48.424;11.258;2022-12-29T03:12:35;95300.34;;;10.28;52.39
25526;BME280;13424;48.424;11.258;2022-12-29T03:15:33;95299.81;;;10.48;52.45
25526;BME280;13424;48.424;11.258;2022-12-29T03:19:10;95296.94;;;10.16;53.05
25526;BME280;13424;48.424;11.258;2022-12-29T03:21:48;95290.16;;;10.08;53.29
25526;BME280;13424;48.424;11.258;2022-12-29T03:24:46;95286.53;;;9.81;53.20
25526;BME280;13424;48.424;11.258;2022-12-29T03:27:19;95290.16;;;10.25;52.86
25526;BME280;13424;48.424;11.258;2022-12-29T03:29:53;95288.28;;;10.08;52.50
25526;BME280;13424;48.424;11.258;2022-12-29T03:32:26;95288.78;;;10.05;52.92
25526;BME280;13424;48.424;11.258;2022-12-29T03:34:56;95290.00;;;9.64;53.79
25526;BME280;13424;48.424;11.258;2022-12-29T03:37:28;95283.06;;;9.80;53.77
25526;BME280;13424;48.424;11.258;2022-12-29T03:39:57;95278.31;;;9.82;54.55
25526;BME280;13424;48.424;11.258;2022-12-29T03:42:25;95289.34;;;9.57;54.41
25526;BME280;13424;48.424;11.258;2022-12-29T03:44:56;95275.94;;;10.02;53.81
25526;BME280;13424;48.424;11.258;2022-12-29T03:47:23;95275.13;;;10.02;53.85
25526;BME280;13424;48.424;11.258;2022-12-29T03:49:50;95274.75;;;9.93;53.51
25526;BME280;13424;48.424;11.258;2022-12-29T03:52:17;95280.00;;;9.88;54.42
25526;BME280;13424;48.424;11.258;2022-12-29T03:54:44;95278.63;;;9.86;53.87
25526;BME280;13424;48.424;11.258;2022-12-29T03:57:11;95273.06;;;10.04;53.55
25526;BME280;13424;48.424;11.258;2022-12-29T03:59:59;95274.09;;;10.37;53.35
25526;BME280;13424;48.424;11.258;2022-12-29T04:02:27;95283.56;;;10.27;53.18
25526;BME280;13424;48.424;11.258;2022-12-29T04:04:56;95287.41;;;10.20;52.63
25526;BME280;13424;48.424;11.258;2022-12-29T04:07:22;95284.75;;;10.20;53.77
25526;BME280;13424;48.424;11.258;2022-12-29T04:09:52;95282.41;;;10.23;53.50
25526;BME280;13424;48.424;11.258;2022-12-29T04:12:21;95278.28;;;10.16;53.68
25526;BME280;13424;48.424;11.258;2022-12-29T04:14:47;95282.41;;;10.23;53.25
25526;BME280;13424;48.424;11.258;2022-12-29T04:17:13;95278.84;;;10.01;54.29
25526;BME280;13424;48.424;11.258;2022-12-29T04:19:40;95282.56;;;10.33;53.17
25526;BME280;13424;48.424;11.258;2022-12-29T04:22:06;95280.09;;;10.49;52.80
25526;BME280;13424;48.424;11.258;2022-12-29T04:24:33;95276.13;;;9.96;54.17
25526;BME280;13424;48.424;11.258;2022-12-29T04:26:59;95271.16;;;10.21;53.87
25526;BME280;13424;48.424;11.258;2022-12-29T04:29:42;95269.81;;;10.36;53.33
25526;BME280;13424;48.424;11.258;2022-12-29T04:33:07;95266.50;;;9.95;53.84
25526;BME280;13424;48.424;11.258;2022-12-29T04:35:33;95267.38;;;10.00;53.28
25526;BME280;13424;48.424;11.258;2022-12-29T04:37:59;95277.38;;;10.10;53.14
25526;BME280;13424;48.424;11.258;2022-12-29T04:40:25;95274.09;;;10.37;52.68
25526;BME280;13424;48.424;11.258;2022-12-29T04:42:51;95275.56;;;10.49;52.93
25526;BME280;13424;48.424;11.258;2022-12-29T04:45:19;95273.19;;;10.31;53.11
25526;BME280;13424;48.424;11.258;2022-12-29T04:47:52;95275.63;;;10.32;52.49
25526;BME280;13424;48.424;11.258;2022-12-29T04:50:43;95282.97;;;10.64;52.61
25526;BME280;13424;48.424;11.258;2022-12-29T04:53:21;95270.94;;;10.61;51.65
25526;BME280;13424;48.424;11.258;2022-12-29T04:55:52;95273.25;;;10.53;52.18
25526;BME280;13424;48.424;11.258;2022-12-29T04:58:19;95277.75;;;10.74;50.82
25526;BME280;13424;48.424;11.258;2022-12-29T05:00:46;95273.78;;;10.55;51.00
25526;BME280;13424;48.424;11.258;2022-12-29T05:03:12;95270.69;;;10.63;51.70
25526;BME280;13424;48.424;11.258;2022-12-29T05:05:42;95284.19;;;10.56;51.96
25526;BME280;13424;48.424;11.258;2022-12-29T05:08:08;95275.81;;;10.48;52.06
25526;BME280;13424;48.424;11.258;2022-12-29T05:10:34;95278.38;;;10.81;51.39
25526;BME280;13424;48.424;11.258;2022-12-29T05:13:05;95268.84;;;10.63;51.85
25526;BME280;13424;48.424;11.258;2022-12-29T05:15:31;95274.56;;;10.33;52.10
25526;BME280;13424;48.424;11.258;2022-12-29T05:17:57;95279.25;;;10.65;51.02
25526;BME280;13424;48.424;11.258;2022-12-29T05:20:26;95261.34;;;10.05;52.06
25526;BME280;13424;48.424;11.258;2022-12-29T05:22:52;95266.66;;;10.05;52.34
25526;BME280;13424;48.424;11.258;2022-12-29T05:25:30;95267.09;;;9.97;52.74
25526;BME280;13424;48.424;11.258;2022-12-29T05:28:10;95265.28;;;10.58;51.17
25526;BME280;13424;48.424;11.258;2022-12-29T05:30:50;95265.13;;;10.26;51.86
25526;BME280;13424;48.424;11.258;2022-12-29T05:33:18;95260.59;;;10.26;51.61
25526;BME280;13424;48.424;11.258;2022-12-29T05:35:45;95260.59;;;10.26;51.71
25526;BME280;13424;48.424;11.258;2022-12-29T05:38:12;95267.94;;;10.19;51.70
25526;BME280;13424;48.424;11.258;2022-12-29T05:40:38;95272.41;;;9.80;52.82
25526;BME280;13424;48.424;11.258;2022-12-29T05:43:11;95267.63;;;9.99;52.07
25526;BME280;13424;48.424;11.258;2022-12-29T05:46:00;95269.22;;;10.33;51.25
25526;BME280;13424;48.424;11.258;2022-12-29T05:48:44;95271.88;;;10.33;50.96
25526;BME280;13424;48.424;11.258;2022-12-29T05:51:18;95270.31;;;10.54;50.37
25526;BME280;13424;48.424;11.258;2022-12-29T05:53:50;95273.50;;;10.18;51.33
25526;BME280;13424;48.424;11.258;2022-12-29T06:00:23;95271.84;;;10.50;49.85
25526;BME280;13424;48.424;11.258;2022-12-29T06:02:49;95267.47;;;10.61;50.04
25526;BME280;13424;48.424;11.258;2022-12-29T06:05:16;95272.94;;;10.71;49.96
25526;BME280;13424;48.424;11.258;2022-12-29T06:07:42;95278.31;;;10.54;50.49
25526;BME280;13424;48.424;11.258;2022-12-29T06:10:10;95280.50;;;10.79;50.20
25526;BME280;13424;48.424;11.258;2022-12-29T06:12:43;95274.25;;;10.69;50.11
25526;BME280;13424;48.424;11.258;2022-12-29T06:15:16;95268.13;;;10.29;51.62
25526;BME280;13424;48.424;11.258;2022-12-29T06:17:43;95274.56;;;10.33;50.90
25526;BME280;13424;48.424;11.258;2022-12-29T06:20:10;95278.19;;;10.66;51.16
25526;BME280;13424;48.424;11.258;2022-12-29T06:22:37;95273.28;;;10.58;50.42
25526;BME280;13424;48.424;11.258;2022-12-29T06:25:06;95278.56;;;10.53;51.04
25526;BME280;13424;48.424;11.258;2022-12-29T06:27:33;95272.22;;;10.37;52.32
25526;BME280;13424;48.424;11.258;2022-12-29T06:29:59;95279.63;;;10.52;51.88
25526;BME280;13424;48.424;11.258;2022-12-29T06:32:25;95267.28;;;10.46;51.76
25526;BME280;13424;48.424;11.258;2022-12-29T06:34:53;95268.19;;;10.56;51.56
25526;BME280;13424;48.424;11.258;2022-12-29T06:37:19;95274.22;;;10.47;52.02
25526;BME280;13424;48.424;11.258;2022-12-29T06:39:45;95277.38;;;10.66;52.28
25526;BME280;13424;48.424;11.258;2022-12-29T06:42:22;95277.13;;;10.45;52.71
25526;BME280;13424;48.424;11.258;2022-12-29T06:45:08;95287.03;;;10.50;52.41
25526;BME280;13424;48.424;11.258;2022-12-29T06:47:35;95269.34;;;10.60;52.41
25526;BME280;13424;48.424;11.258;2022-12-29T06:54:37;95281.25;;;10.53;53.37
25526;BME280;13424;48.424;11.258;2022-12-29T06:57:03;95286.25;;;10.49;53.66
25526;BME280;13424;48.424;11.258;2022-12-29T06:59:29;95284.75;;;10.58;54.11
25526;BME280;13424;48.424;11.258;2022-12-29T07:01:54;95286.78;;;10.29;55.05
25526;BME280;13424;48.424;11.258;2022-12-29T07:04:20;95290.03;;;10.53;55.36
25526;BME280;13424;48.424;11.258;2022-12-29T07:06:46;95298.94;;;10.59;55.24
25526;BME280;13424;48.424;11.258;2022-12-29T07:09:12;95298.69;;;10.60;55.43
25526;BME280;13424;48.424;11.258;2022-12-29T07:11:38;95290.78;;;10.49;55.87
25526;BME280;13424;48.424;11.258;2022-12-29T07:14:03;95297.28;;;10.58;55.98
25526;BME280;13424;48.424;11.258;2022-12-29T07:16:29;95302.97;;;10.83;56.09
25526;BME280;13424;48.424;11.258;2022-12-29T07:18:58;95311.25;;;10.65;55.73
25526;BME280;13424;48.424;11.258;2022-12-29T07:21:25;95312.34;;;10.86;56.22
25526;BME280;13424;48.424;11.258;2022-12-29T07:23:51;95304.44;;;10.74;56.30
25526;BME280;13424;48.424;11.258;2022-12-29T07:26:16;95309.97;;;10.89;56.14
25526;BME280;13424;48.424;11.258;2022-12-29T07:28:43;95292.31;;;10.83;55.99
25526;BME280;13424;48.424;11.258;2022-12-29T07:31:19;95305.75;;;10.94;56.54
25526;BME280;13424;48.424;11.258;2022-12-29T07:33:45;95302.97;;;10.83;56.80
25526;BME280;13424;48.424;11.258;2022-12-29T07:36:12;95308.69;;;10.92;57.15
25526;BME280;13424;48.424;11.258;2022-12-29T07:38:38;95300.66;;;10.92;56.98
25526;BME280;13424;48.424;11.258;2022-12-29T07:41:05;95295.25;;;11.09;57.28
25526;BME280;13424;48.424;11.258;2022-12-29T07:43:30;95295.75;;;11.06;56.68
25526;BME280;13424;48.424;11.258;2022-12-29T07:46:22;95285.75;;;11.18;56.83
25526;BME280;13424;48.424;11.258;2022-12-29T07:48:48;95276.75;;;11.24;56.50
25526;BME280;13424;48.424;11.258;2022-12-29T07:51:14;95277.69;;;11.13;56.19
25526;BME280;13424;48.424;11.258;2022-12-29T07:53:41;95273.88;;;11.31;55.92
25526;BME280;13424;48.424;11.258;2022-12-29T07:56:06;95282.69;;;11.31;56.07
25526;BME280;13424;48.424;11.258;2022-12-29T07:58:32;95276.38;;;11.42;56.39
25526;BME280;13424;48.424;11.258;2022-12-29T08:00:58;95269.50;;;11.46;55.89
25526;BME280;13424;48.424;11.258;2022-12-29T08:03:24;95270.47;;;11.67;55.77
25526;BME280;13424;48.424;11.258;2022-12-29T08:05:51;95270.91;;;11.54;56.48
25526;BME280;13424;48.424;11.258;2022-12-29T08:08:17;95271.00;;;11.64;55.68
25526;BME280;13424;48.424;11.258;2022-12-29T08:10:43;95275.72;;;11.57;56.41
25526;BME280;13424;48.424;11.258;2022-12-29T08:13:09;95267.34;;;11.75;55.67
25526;BME280;13424;48.424;11.258;2022-12-29T08:15:36;95267.59;;;11.74;55.44
25526;BME280;13424;48.424;11.258;2022-12-29T08:18:03;95281.28;;;12.10;54.65
25526;BME280;13424;48.424;11.258;2022-12-29T08:20:29;95273.75;;;12.01;55.17
25526;BME280;13424;48.424;11.258;2022-12-29T08:22:54;95292.53;;;12.12;55.54
25526;BME280;13424;48.424;11.258;2022-12-29T08:25:20;95296.81;;;12.13;54.75
25526;BME280;13424;48.424;11.258;2022-12-29T08:27:46;95301.28;;;12.44;54.64
25526;BME280;13424;48.424;11.258;2022-12-29T08:30:13;95300.06;;;12.57;54.53
25526;BME280;13424;48.424;11.258;2022-12-29T08:32:38;95306.97;;;12.53;54.79
25526;BME280;13424;48.424;11.258;2022-12-29T08:35:05;95299.16;;;12.46;55.22
25526;BME280;13424;48.424;11.258;2022-12-29T08:41:11;95316.53;;;12.91;54.38
25526;BME280;13424;48.424;11.258;2022-12-29T08:43:37;95326.34;;;13.23;53.72
25526;BME280;13424;48.424;11.258;2022-12-29T08:46:02;95328.47;;;13.26;54.67
25526;BME280;13424;48.424;11.258;2022-12-29T08:48:28;95325.97;;;13.09;55.13
25526;BME280;13424;48.424;11.258;2022-12-29T08:50:54;95323.06;;;13.16;54.18
25526;BME280;13424;48.424;11.258;2022-12-29T08:53:20;95330.66;;;13.34;54.43
25526;BME280;13424;48.424;11.258;2022-12-29T08:55:47;95337.09;;;13.28;54.79
25526;BME280;13424;48.424;11.258;2022-12-29T08:58:14;95323.13;;;13.26;54.84
25526;BME280;13424;48.424;11.258;2022-12-29T09:00:42;95336.44;;;13.10;55.43
25526;BME280;13424;48.424;11.258;2022-12-29T09:03:09;95324.59;;;12.96;54.90
25526;BME280;13424;48.424;11.258;2022-12-29T09:05:34;95329.59;;;13.35;56.12
25526;BME280;13424;48.424;11.258;2022-12-29T09:08:00;95332.38;;;13.03;55.34
25526;BME280;13424;48.424;11.258;2022-12-29T09:10:27;95329.44;;;12.99;56.64
25526;BME280;13424;48.424;11.258;2022-12-29T09:12:52;95318.94;;;12.93;55.41
25526;BME280;13424;48.424;11.258;2022-12-29T09:15:18;95331.53;;;12.92;55.64
25526;BME280;13424;48.424;11.258;2022-12-29T09:17:44;95334.50;;;12.96;55.89
25526;BME280;13424;48.424;11.258;2022-12-29T09:20:16;95342.69;;;13.21;55.30
25526;BME280;13424;48.424;11.258;2022-12-29T09:22:43;95344.56;;;13.21;54.73
25526;BME280;13424;48.424;11.258;2022-12-29T09:25:10;95350.22;;;12.87;55.39
25526;BME280;13424;48.424;11.258;2022-12-29T09:27:36;95345.03;;;13.12;55.86
25526;BME280;13424;48.424;11.258;2022-12-29T09:30:08;95344.44;;;13.05;56.05
25526;BME280;13424;48.424;11.258;2022-12-29T09:32:34;95346.53;;;12.93;56.29
25526;BME280;13424;48.424;11.258;2022-12-29T09:35:01;95350.84;;;12.99;56.25
25526;BME280;13424;48.424;11.258;2022-12-29T09:37:27;95349.63;;;12.75;55.54
25526;BME280;13424;48.424;11.258;2022-12-29T09:39:55;95349.19;;;12.88;56.02
25526;BME280;13424;48.424;11.258;2022-12-29T09:42:38;95351.69;;;13.10;56.61
25526;BME280;13424;48.424;11.258;2022-12-29T09:45:29;95337.19;;;13.01;56.16
25526;BME280;13424;48.424;11.258;2022-12-29T09:47:57;95341.41;;;12.86;56.27
25526;BME280;13424;48.424;11.258;2022-12-29T09:50:30;95345.81;;;12.61;56.01
25526;BME280;13424;48.424;11.258;2022-12-29T09:53:13;95344.25;;;12.65;56.00
25526;BME280;13424;48.424;11.258;2022-12-29T09:55:49;95334.75;;;12.89;55.75
25526;BME280;13424;48.424;11.258;2022-12-29T09:58:28;95335.72;;;12.73;55.76
25526;BME280;13424;48.424;11.258;2022-12-29T10:01:20;95324.25;;;12.82;56.05
25526;BME280;13424;48.424;11.258;2022-12-29T10:03:50;95322.09;;;12.79;56.03
25526;BME280;13424;48.424;11.258;2022-12-29T10:06:54;95330.56;;;13.13;56.62
25526;BME280;13424;48.424;11.258;2022-12-29T10:09:37;95317.34;;;12.92;55.65
25526;BME280;13424;48.424;11.258;2022-12-29T10:24:38;95309.81;;;13.46;54.69
25526;BME280;13424;48.424;11.258;2022-12-29T10:27:10;95317.81;;;13.31;54.42
25526;BME280;13424;48.424;11.258;2022-12-29T10:29:40;95311.47;;;13.67;54.19
25526;BME280;13424;48.424;11.258;2022-12-29T10:32:47;95313.88;;;13.59;53.44
25526;BME280;13424;48.424;11.258;2022-12-29T10:40:57;95287.91;;;13.95;52.66
25526;BME280;13424;48.424;11.258;2022-12-29T10:43:29;95285.47;;;14.29;51.62
25526;BME280;13424;48.424;11.258;2022-12-29T10:45:59;95284.69;;;14.03;51.53
25526;BME280;13424;48.424;11.258;2022-12-29T10:48:33;95275.56;;;14.14;50.41
25526;BME280;13424;48.424;11.258;2022-12-29T10:51:05;95280.38;;;13.97;52.19
25526;BME280;13424;48.424;11.258;2022-12-29T10:53:48;95286.25;;;13.74;50.68
25526;BME280;13424;48.424;11.258;2022-12-29T10:56:42;95285.75;;;13.82;50.58
25526;BME280;13424;48.424;11.258;2022-12-29T11:05:00;95279.31;;;13.93;51.04
25526;BME280;13424;48.424;11.258;2022-12-29T11:07:30;95279.84;;;13.90;50.83
25526;BME280;13424;48.424;11.258;2022-12-29T11:10:28;95290.59;;;13.85;51.87
25526;BME280;13424;48.424;11.258;2022-12-29T11:13:12;95281.19;;;13.77;52.28
25526;BME280;13424;48.424;11.258;2022-12-29T11:15:47;95273.94;;;13.62;52.41
25526;BME280;13424;48.424;11.258;2022-12-29T11:18:34;95280.91;;;13.74;53.61
25526;BME280;13424;48.424;11.258;2022-12-29T11:21:06;95270.19;;;13.63;53.18
25526;BME280;13424;48.424;11.258;2022-12-29T11:24:29;95271.28;;;13.78;53.89
25526;BME280;13424;48.424;11.258;2022-12-29T11:27:13;95278.22;;;13.53;52.88
25526;BME280;13424;48.424;11.258;2022-12-29T11:33:46;95275.84;;;13.77;53.68
25526;BME280;13424;48.424;11.258;2022-12-29T11:36:21;95279.31;;;13.98;53.35
25526;BME280;13424;48.424;11.258;2022-12-29T11:38:53;95275.03;;;13.97;53.26
25526;BME280;13424;48.424;11.258;2022-12-29T11:41:29;95255.72;;;14.05;52.49
25526;BME280;13424;48.424;11.258;2022-12-29T11:44:02;95268.56;;;14.54;52.90
25526;BME280;13424;48.424;11.258;2022-12-29T11:46:36;95252.72;;;14.42;51.85
25526;BME280;13424;48.424;11.258;2022-12-29T11:49:03;95261.00;;;14.61;52.53
25526;BME280;13424;48.424;11.258;2022-12-29T11:51:47;95266.03;;;14.88;52.76
25526;BME280;13424;48.424;11.258;2022-12-29T11:54:22;95266.13;;;14.52;50.90
25526;BME280;13424;48.424;11.258;2022-12-29T11:56:50;95261.75;;;14.87;52.18
25526;BME280;13424;48.424;11.258;2022-12-29T12:02:20;95250.50;;;14.85;51.44
25526;BME280;13424;48.424;11.258;2022-12-29T12:08:56;95249.31;;;15.06;50.94
25526;BME280;13424;48.424;11.258;2022-12-29T12:11:32;95246.44;;;14.88;51.82
25526;BME280;13424;48.424;11.258;2022-12-29T12:14:20;95251.50;;;14.99;51.49
25526;BME280;13424;48.424;11.258;2022-12-29T12:17:17;95255.59;;;14.87;51.81
25526;BME280;13424;48.424;11.258;2022-12-29T12:19:53;95246.91;;;15.10;51.61
25526;BME280;13424;48.424;11.258;2022-12-29T12:22:41;95259.97;;;15.22;52.65
25526;BME280;13424;48.424;11.258;2022-12-29T12:25:17;95261.94;;;15.06;52.47
25526;BME280;13424;48.424;11.258;2022-12-29T12:27:59;95241.47;;;15.20;53.55
25526;BME280;13424;48.424;11.258;2022-12-29T12:30:30;95247.94;;;15.14;53.73
25526;BME280;13424;48.424;11.258;2022-12-29T12:33:05;95245.94;;;14.86;53.68
25526;BME280;13424;48.424;11.258;2022-12-29T12:41:46;95245.13;;;14.80;53.36
25526;BME280;13424;48.424;11.258;2022-12-29T12:47:26;95235.28;;;14.30;52.49
25526;BME280;13424;48.424;11.258;2022-12-29T12:50:28;95235.84;;;14.47;53.58
25526;BME280;13424;48.424;11.258;2022-12-29T13:03:03;95228.28;;;14.69;53.11
25526;BME280;13424;48.424;11.258;2022-12-29T13:09:24;95211.16;;;14.35;52.45
25526;BME280;13424;48.424;11.258;2022-12-29T13:12:39;95219.16;;;14.60;53.50
25526;BME280;13424;48.424;11.258;2022-12-29T13:15:40;95211.38;;;14.59;53.32
25526;BME280;13424;48.424;11.258;2022-12-29T13:18:47;95218.53;;;14.84;53.55
25526;BME280;13424;48.424;11.258;2022-12-29T13:21:56;95225.56;;;14.74;53.23
25526;BME280;13424;48.424;11.258;2022-12-29T13:27:24;95231.47;;;14.71;54.29
25526;BME280;13424;48.424;11.258;2022-12-29T13:30:19;95220.78;;;14.56;54.07
25526;BME280;13424;48.424;11.258;2022-12-29T13:33:04;95224.00;;;14.53;54.66
25526;BME280;13424;48.424;11.258;2022-12-29T13:36:05;95223.50;;;14.46;54.72
25526;BME280;13424;48.424;11.258;2022-12-29T13:42:00;95227.16;;;14.80;54.92
25526;BME280;13424;48.424;11.258;2022-12-29T13:44:35;95227.22;;;14.60;55.83
25526;BME280;13424;48.424;11.258;2022-12-29T13:47:32;95217.06;;;14.32;55.94
25526;BME280;13424;48.424;11.258;2022-12-29T13:50:00;95211.16;;;14.35;56.00
25526;BME280;13424;48.424;11.258;2022-12-29T13:58:39;95222.44;;;14.21;57.15
25526;BME280;13424;48.424;11.258;2022-12-29T14:01:35;95227.28;;;14.04;57.79
25526;BME280;13424;48.424;11.258;2022-12-29T14:04:12;95224.09;;;13.92;58.60
25526;BME280;13424;48.424;11.258;2022-12-29T14:06:39;95221.41;;;14.07;57.97
25526;BME280;13424;48.424;11.258;2022-12-29T14:09:41;95212.84;;;13.85;58.86
25526;BME280;13424;48.424;11.258;2022-12-29T14:15:22;95204.25;;;13.73;58.71
25526;BME280;13424;48.424;11.258;2022-12-29T14:18:16;95216.56;;;13.48;59.76
25526;BME280;13424;48.424;11.258;2022-12-29T14:23:38;95223.03;;;13.88;59.45
25526;BME280;13424;48.424;11.258;2022-12-29T14:28:39;95225.16;;;13.96;59.43
25526;BME280;13424;48.424;11.258;2022-12-29T14:47:43;95240.72;;;13.53;59.73
25526;BME280;13424;48.424;11.258;2022-12-29T14:50:42;95238.03;;;13.94;59.34
25526;BME280;13424;48.424;11.258;2022-12-29T14:56:10;95237.50;;;13.72;59.40
25526;BME280;13424;48.424;11.258;2022-12-29T14:58:58;95237.19;;;13.43;59.63
25526;BME280;13424;48.424;11.258;2022-12-29T15:02:19;95244.47;;;13.78;58.95
25526;BME280;13424;48.424;11.258;2022-12-29T15:04:46;95246.84;;;13.49;59.37
25526;BME280;13424;48.424;11.258;2022-12-29T15:07:12;95239.09;;;13.47;59.26
25526;BME280;13424;48.424;11.258;2022-12-29T15:09:50;95235.34;;;13.53;58.93
25526;BME280;13424;48.424;11.258;2022-12-29T15:12:29;95239.88;;;13.48;59.43
25526;BME280;13424;48.424;11.258;2022-12-29T15:15:00;95244.94;;;13.34;59.15
25526;BME280;13424;48.424;11.258;2022-12-29T15:17:33;95235.31;;;13.28;59.62
25526;BME280;13424;48.424;11.258;2022-12-29T15:20:28;95247.38;;;13.46;59.29
25526;BME280;13424;48.424;11.258;2022-12-29T15:22:58;95249.53;;;13.38;59.56
25526;BME280;13424;48.424;11.258;2022-12-29T15:25:26;95267.97;;;13.25;59.97
25526;BME280;13424;48.424;11.258;2022-12-29T15:28:01;95264.25;;;13.36;60.22
25526;BME280;13424;48.424;11.258;2022-12-29T15:30:28;95259.66;;;13.26;60.41
25526;BME280;13424;48.424;11.258;2022-12-29T15:32:54;95255.41;;;13.40;59.66
25526;BME280;13424;48.424;11.258;2022-12-29T15:35:31;95262.03;;;13.12;60.14
25526;BME280;13424;48.424;11.258;2022-12-29T15:37:57;95258.50;;;12.97;60.49
25526;BME280;13424;48.424;11.258;2022-12-29T15:40:30;95259.88;;;13.14;60.18
25526;BME280;13424;48.424;11.258;2022-12-29T15:43:07;95254.00;;;13.12;60.33
25526;BME280;13424;48.424;11.258;2022-12-29T15:45:36;95254.75;;;13.08;60.58
25526;BME280;13424;48.424;11.258;2022-12-29T15:48:03;95257.53;;;13.33;60.25